DLH63H LEIB-EDDF
Flight info
| Callsign | DLH63H |
|---|---|
| Flight time | 1h 53m |
| Altitude | 38000 |
| Route | KABRE DCT ELTAN N853 LUMAS DCT MAXIR DCT LUSOL DCT BODRU DCT OKTET DCT IRMAR DCT KINES DCT VANAS DCT ESOKO DCT GODRA DCT LADOL T163 EMPAX EMPAX5B |
| Aircraft | A20N/M-SDE2E3FGIJ1LORWXYZ/HB1 |
Departure
| Time | 2026-05-07 07:08 |
|---|---|
| Airport | Ibiza Airport (LEIB) |
Arrival
| Time | 2026-05-07 09:01 |
|---|---|
| Airport | Frankfurt Main Airport (EDDF) |
| Time | Latitude | Longitude | Altitude | Speed | Heading |
|---|---|---|---|---|---|
| 2026-05-07 06:42 | 38.87624 | 1.37062 | 49 ft | 0 kts | 332° |
| 2026-05-07 07:00 | 38.87617 | 1.37067 | 49 ft | 4 kts | 332° |
| 2026-05-07 07:00 | 38.87597 | 1.37081 | 46 ft | 4 kts | 325° |
| 2026-05-07 07:01 | 38.87578 | 1.37104 | 44 ft | 4 kts | 289° |
| 2026-05-07 07:01 | 38.87578 | 1.37131 | 44 ft | 1 kts | 242° |
| 2026-05-07 07:01 | 38.87580 | 1.37136 | 44 ft | 0 kts | 242° |
| 2026-05-07 07:03 | 38.87570 | 1.37111 | 46 ft | 8 kts | 242° |
| 2026-05-07 07:04 | 38.87523 | 1.36996 | 43 ft | 21 kts | 242° |
| 2026-05-07 07:04 | 38.87453 | 1.36835 | 44 ft | 15 kts | 244° |
| 2026-05-07 07:04 | 38.87386 | 1.36796 | 40 ft | 10 kts | 139° |
| 2026-05-07 07:04 | 38.87308 | 1.36853 | 38 ft | 16 kts | 175° |
| 2026-05-07 07:05 | 38.87231 | 1.36730 | 36 ft | 21 kts | 244° |
| 2026-05-07 07:05 | 38.87156 | 1.36547 | 34 ft | 25 kts | 243° |
| 2026-05-07 07:05 | 38.87070 | 1.36339 | 32 ft | 28 kts | 243° |
| 2026-05-07 07:05 | 38.86996 | 1.36163 | 30 ft | 21 kts | 242° |
| 2026-05-07 07:06 | 38.86920 | 1.35979 | 27 ft | 25 kts | 241° |
| 2026-05-07 07:06 | 38.86849 | 1.35823 | 28 ft | 14 kts | 216° |
| 2026-05-07 07:06 | 38.86753 | 1.35865 | 25 ft | 16 kts | 150° |
| 2026-05-07 07:06 | 38.86718 | 1.35943 | 25 ft | 10 kts | 64° |
| 2026-05-07 07:07 | 38.86733 | 1.35977 | 28 ft | 0 kts | 63° |
| 2026-05-07 07:07 | 38.86813 | 1.36173 | 29 ft | 61 kts | 62° |
| 2026-05-07 07:08 | 38.87112 | 1.36898 | 29 ft | 120 kts | 62° |
| 2026-05-07 07:08 | 38.87568 | 1.38015 | 130 ft | 154 kts | 63° |
| 2026-05-07 07:08 | 38.88024 | 1.39237 | 790 ft | 151 kts | 65° |
| 2026-05-07 07:08 | 38.88377 | 1.40477 | 1497 ft | 145 kts | 74° |
| 2026-05-07 07:09 | 38.88641 | 1.41760 | 1964 ft | 159 kts | 75° |
| 2026-05-07 07:09 | 38.88898 | 1.43230 | 2353 ft | 177 kts | 77° |
| 2026-05-07 07:09 | 38.89169 | 1.44869 | 2782 ft | 198 kts | 77° |
| 2026-05-07 07:09 | 38.89473 | 1.46648 | 3406 ft | 210 kts | 77° |
| 2026-05-07 07:10 | 38.89799 | 1.48491 | 4342 ft | 211 kts | 77° |
| 2026-05-07 07:10 | 38.90133 | 1.50327 | 5327 ft | 213 kts | 77° |
| 2026-05-07 07:10 | 38.90479 | 1.52200 | 6230 ft | 218 kts | 77° |
| 2026-05-07 07:10 | 38.90752 | 1.54133 | 7066 ft | 223 kts | 86° |
| 2026-05-07 07:11 | 38.90710 | 1.56122 | 7861 ft | 230 kts | 97° |
| 2026-05-07 07:11 | 38.90486 | 1.58237 | 8407 ft | 251 kts | 97° |
| 2026-05-07 07:11 | 38.90472 | 1.60559 | 8850 ft | 273 kts | 77° |
| 2026-05-07 07:11 | 38.91169 | 1.62913 | 9490 ft | 289 kts | 64° |
| 2026-05-07 07:12 | 38.92109 | 1.65235 | 10320 ft | 299 kts | 61° |
| 2026-05-07 07:12 | 38.93138 | 1.67682 | 10727 ft | 324 kts | 62° |
| 2026-05-07 07:12 | 38.94222 | 1.70340 | 11145 ft | 345 kts | 63° |
| 2026-05-07 07:12 | 38.95317 | 1.73119 | 11927 ft | 352 kts | 64° |
| 2026-05-07 07:13 | 38.96411 | 1.75951 | 12790 ft | 357 kts | 64° |
| 2026-05-07 07:13 | 38.97516 | 1.78839 | 13653 ft | 362 kts | 64° |
| 2026-05-07 07:13 | 38.98632 | 1.81767 | 14395 ft | 368 kts | 64° |
| 2026-05-07 07:13 | 38.99764 | 1.84743 | 15140 ft | 373 kts | 64° |
| 2026-05-07 07:14 | 39.00909 | 1.87762 | 15882 ft | 379 kts | 64° |
| 2026-05-07 07:14 | 39.02074 | 1.90835 | 16585 ft | 385 kts | 64° |
| 2026-05-07 07:14 | 39.03254 | 1.93953 | 17274 ft | 391 kts | 64° |
| 2026-05-07 07:14 | 39.04450 | 1.97123 | 17972 ft | 397 kts | 64° |
| 2026-05-07 07:15 | 39.05667 | 2.00336 | 18604 ft | 403 kts | 64° |
| 2026-05-07 07:15 | 39.06908 | 2.03608 | 19190 ft | 409 kts | 64° |
| 2026-05-07 07:15 | 39.08161 | 2.06921 | 19763 ft | 415 kts | 64° |
| 2026-05-07 07:15 | 39.09429 | 2.10281 | 20346 ft | 421 kts | 64° |
| 2026-05-07 07:16 | 39.10715 | 2.13691 | 20895 ft | 427 kts | 64° |
| 2026-05-07 07:16 | 39.12017 | 2.17149 | 21469 ft | 432 kts | 64° |
| 2026-05-07 07:16 | 39.13339 | 2.20664 | 22024 ft | 438 kts | 64° |
| 2026-05-07 07:16 | 39.14674 | 2.24219 | 22583 ft | 444 kts | 65° |
| 2026-05-07 07:17 | 39.16030 | 2.27833 | 23128 ft | 450 kts | 65° |
| 2026-05-07 07:17 | 39.17439 | 2.31445 | 23647 ft | 456 kts | 59° |
| 2026-05-07 07:17 | 39.19371 | 2.34689 | 24125 ft | 458 kts | 44° |
| 2026-05-07 07:17 | 39.21825 | 2.37282 | 24631 ft | 458 kts | 32° |
| 2026-05-07 07:18 | 39.24521 | 2.39522 | 25124 ft | 461 kts | 29° |
| 2026-05-07 07:18 | 39.27252 | 2.41705 | 25618 ft | 464 kts | 29° |
| 2026-05-07 07:18 | 39.29986 | 2.43945 | 26091 ft | 468 kts | 30° |
| 2026-05-07 07:18 | 39.32314 | 2.45911 | 26496 ft | 471 kts | 31° |
| 2026-05-07 07:19 | 39.35049 | 2.48268 | 26959 ft | 474 kts | 31° |
| 2026-05-07 07:19 | 39.37699 | 2.50583 | 27399 ft | 477 kts | 32° |
| 2026-05-07 07:19 | 39.40419 | 2.52971 | 27817 ft | 480 kts | 32° |
| 2026-05-07 07:19 | 39.43223 | 2.55439 | 28237 ft | 484 kts | 32° |
| 2026-05-07 07:20 | 39.45070 | 2.57067 | 28510 ft | 486 kts | 32° |
| 2026-05-07 07:20 | 39.47879 | 2.59543 | 28909 ft | 489 kts | 32° |
| 2026-05-07 07:20 | 39.50698 | 2.62029 | 29291 ft | 492 kts | 32° |
| 2026-05-07 07:20 | 39.53535 | 2.64534 | 29658 ft | 495 kts | 32° |
| 2026-05-07 07:21 | 39.56388 | 2.67055 | 30029 ft | 498 kts | 32° |
| 2026-05-07 07:21 | 39.59259 | 2.69595 | 30364 ft | 501 kts | 32° |
| 2026-05-07 07:21 | 39.62151 | 2.72157 | 30716 ft | 503 kts | 32° |
| 2026-05-07 07:21 | 39.65048 | 2.74725 | 31064 ft | 506 kts | 32° |
| 2026-05-07 07:22 | 39.67952 | 2.77302 | 31483 ft | 506 kts | 31° |
| 2026-05-07 07:22 | 39.70851 | 2.79879 | 31933 ft | 505 kts | 31° |
| 2026-05-07 07:22 | 39.73749 | 2.82457 | 32386 ft | 504 kts | 31° |
| 2026-05-07 07:22 | 39.76640 | 2.85031 | 32839 ft | 504 kts | 31° |
| 2026-05-07 07:23 | 39.79528 | 2.87605 | 33285 ft | 503 kts | 31° |
| 2026-05-07 07:23 | 39.82409 | 2.90175 | 33722 ft | 502 kts | 31° |
| 2026-05-07 07:23 | 39.85294 | 2.92750 | 34133 ft | 501 kts | 31° |
| 2026-05-07 07:23 | 39.88164 | 2.95316 | 34437 ft | 501 kts | 31° |
| 2026-05-07 07:24 | 39.91006 | 2.97858 | 34703 ft | 503 kts | 31° |
| 2026-05-07 07:24 | 39.93920 | 3.00468 | 35030 ft | 502 kts | 31° |
| 2026-05-07 07:24 | 39.96762 | 3.03017 | 35324 ft | 502 kts | 31° |
| 2026-05-07 07:24 | 39.99674 | 3.05630 | 35605 ft | 503 kts | 31° |
| 2026-05-07 07:25 | 40.05439 | 3.10812 | 36146 ft | 503 kts | 31° |
| 2026-05-07 07:25 | 40.08278 | 3.13367 | 36410 ft | 503 kts | 31° |
| 2026-05-07 07:25 | 40.11161 | 3.15964 | 36663 ft | 503 kts | 31° |
| 2026-05-07 07:26 | 40.14085 | 3.18602 | 36925 ft | 504 kts | 31° |
| 2026-05-07 07:26 | 40.16931 | 3.21171 | 37172 ft | 504 kts | 31° |
| 2026-05-07 07:26 | 40.19811 | 3.23774 | 37427 ft | 504 kts | 31° |
| 2026-05-07 07:26 | 40.22691 | 3.26380 | 37665 ft | 504 kts | 31° |
| 2026-05-07 07:27 | 40.25570 | 3.28987 | 37908 ft | 504 kts | 31° |
| 2026-05-07 07:27 | 40.31332 | 3.34215 | 37982 ft | 502 kts | 31° |
| 2026-05-07 07:28 | 40.37060 | 3.39422 | 38001 ft | 501 kts | 31° |
| 2026-05-07 07:28 | 40.42796 | 3.44648 | 38001 ft | 501 kts | 31° |
| 2026-05-07 07:29 | 40.48510 | 3.49865 | 38000 ft | 500 kts | 31° |
| 2026-05-07 07:29 | 40.54218 | 3.55087 | 38003 ft | 500 kts | 31° |
| 2026-05-07 07:30 | 40.59926 | 3.60320 | 38004 ft | 499 kts | 31° |
| 2026-05-07 07:30 | 40.65617 | 3.65548 | 38003 ft | 499 kts | 31° |
| 2026-05-07 07:31 | 40.71308 | 3.70788 | 38003 ft | 498 kts | 31° |
| 2026-05-07 07:31 | 40.76984 | 3.76024 | 38004 ft | 498 kts | 31° |
| 2026-05-07 07:32 | 40.82651 | 3.81264 | 38005 ft | 498 kts | 31° |
| 2026-05-07 07:32 | 40.88280 | 3.86479 | 38003 ft | 497 kts | 31° |
| 2026-05-07 07:33 | 40.93934 | 3.91729 | 38005 ft | 497 kts | 31° |
| 2026-05-07 07:33 | 40.99592 | 3.96993 | 38006 ft | 496 kts | 31° |
| 2026-05-07 07:34 | 41.05234 | 4.02254 | 38007 ft | 496 kts | 31° |
| 2026-05-07 07:34 | 41.10878 | 4.07528 | 38012 ft | 496 kts | 31° |
| 2026-05-07 07:35 | 41.16507 | 4.12800 | 38009 ft | 496 kts | 31° |
| 2026-05-07 07:35 | 41.22132 | 4.18080 | 38008 ft | 495 kts | 31° |
| 2026-05-07 07:36 | 41.27761 | 4.23374 | 38014 ft | 495 kts | 32° |
| 2026-05-07 07:36 | 41.33375 | 4.28667 | 38015 ft | 495 kts | 32° |
| 2026-05-07 07:37 | 41.38994 | 4.33975 | 38011 ft | 495 kts | 32° |
| 2026-05-07 07:37 | 41.44598 | 4.39280 | 38019 ft | 494 kts | 32° |
| 2026-05-07 07:38 | 41.50140 | 4.44538 | 38021 ft | 494 kts | 32° |
| 2026-05-07 07:38 | 41.55742 | 4.49864 | 38018 ft | 494 kts | 32° |
| 2026-05-07 07:39 | 41.61331 | 4.55190 | 38016 ft | 494 kts | 32° |
| 2026-05-07 07:39 | 41.66882 | 4.60488 | 38021 ft | 493 kts | 32° |
| 2026-05-07 07:40 | 41.72460 | 4.65821 | 38017 ft | 493 kts | 32° |
| 2026-05-07 07:40 | 41.78258 | 4.70650 | 38007 ft | 490 kts | 26° |
| 2026-05-07 07:41 | 41.84104 | 4.75321 | 38013 ft | 489 kts | 26° |
| 2026-05-07 07:41 | 41.89939 | 4.80008 | 38020 ft | 489 kts | 27° |
| 2026-05-07 07:42 | 41.95774 | 4.84714 | 38002 ft | 489 kts | 27° |
| 2026-05-07 07:42 | 42.01596 | 4.89422 | 38010 ft | 488 kts | 27° |
| 2026-05-07 07:43 | 42.07422 | 4.94143 | 38011 ft | 488 kts | 27° |
| 2026-05-07 07:43 | 42.13237 | 4.98865 | 38011 ft | 488 kts | 27° |
| 2026-05-07 07:44 | 42.19049 | 5.03594 | 38017 ft | 488 kts | 27° |
| 2026-05-07 07:44 | 42.24798 | 5.08284 | 38012 ft | 488 kts | 27° |
| 2026-05-07 07:45 | 42.30613 | 5.13036 | 38014 ft | 488 kts | 26° |
| 2026-05-07 07:45 | 42.36410 | 5.17785 | 38016 ft | 488 kts | 27° |
| 2026-05-07 07:46 | 42.42213 | 5.22548 | 38012 ft | 487 kts | 26° |
| 2026-05-07 07:46 | 42.47968 | 5.27283 | 38012 ft | 487 kts | 27° |
| 2026-05-07 07:47 | 42.53749 | 5.32050 | 38009 ft | 486 kts | 27° |
| 2026-05-07 07:47 | 42.59524 | 5.36821 | 38007 ft | 486 kts | 26° |
| 2026-05-07 07:48 | 42.65300 | 5.41605 | 38004 ft | 486 kts | 26° |
| 2026-05-07 07:48 | 42.71062 | 5.46388 | 38001 ft | 485 kts | 27° |
| 2026-05-07 07:49 | 42.76827 | 5.51183 | 37997 ft | 485 kts | 26° |
| 2026-05-07 07:49 | 42.82578 | 5.55977 | 37996 ft | 485 kts | 27° |
| 2026-05-07 07:50 | 42.88322 | 5.60776 | 37995 ft | 485 kts | 27° |
| 2026-05-07 07:50 | 42.94073 | 5.65590 | 37991 ft | 484 kts | 27° |
| 2026-05-07 07:51 | 42.99809 | 5.70404 | 37989 ft | 484 kts | 27° |
| 2026-05-07 07:51 | 43.05548 | 5.75231 | 37985 ft | 484 kts | 27° |
| 2026-05-07 07:52 | 43.11279 | 5.80062 | 37983 ft | 484 kts | 27° |
| 2026-05-07 07:52 | 43.17012 | 5.84905 | 37993 ft | 484 kts | 27° |
| 2026-05-07 07:53 | 43.22743 | 5.89756 | 37996 ft | 485 kts | 27° |
| 2026-05-07 07:53 | 43.28473 | 5.94619 | 37988 ft | 484 kts | 27° |
| 2026-05-07 07:54 | 43.34200 | 5.99489 | 37987 ft | 483 kts | 26° |
| 2026-05-07 07:54 | 43.40239 | 6.03206 | 37986 ft | 472 kts | 11° |
| 2026-05-07 07:55 | 43.46619 | 6.04754 | 37986 ft | 460 kts | 358° |
| 2026-05-07 07:55 | 43.53006 | 6.05388 | 37979 ft | 460 kts | 358° |
| 2026-05-07 07:56 | 43.59401 | 6.06047 | 37977 ft | 460 kts | 358° |
| 2026-05-07 07:56 | 43.65777 | 6.06694 | 37983 ft | 459 kts | 358° |
| 2026-05-07 07:57 | 43.72110 | 6.07375 | 37978 ft | 461 kts | 1° |
| 2026-05-07 07:57 | 43.78422 | 6.09293 | 37974 ft | 469 kts | 13° |
| 2026-05-07 07:58 | 43.84506 | 6.12889 | 37979 ft | 475 kts | 21° |
| 2026-05-07 07:58 | 43.90449 | 6.16920 | 37970 ft | 475 kts | 21° |
| 2026-05-07 07:59 | 43.96335 | 6.20917 | 37969 ft | 475 kts | 21° |
| 2026-05-07 07:59 | 44.02312 | 6.25004 | 37970 ft | 475 kts | 21° |
| 2026-05-07 08:00 | 44.08206 | 6.29049 | 37968 ft | 476 kts | 22° |
| 2026-05-07 08:00 | 44.14179 | 6.33158 | 37976 ft | 476 kts | 22° |
| 2026-05-07 08:01 | 44.20072 | 6.37221 | 37972 ft | 476 kts | 22° |
| 2026-05-07 08:01 | 44.26045 | 6.41346 | 37961 ft | 476 kts | 22° |
| 2026-05-07 08:02 | 44.31939 | 6.45425 | 37976 ft | 476 kts | 22° |
| 2026-05-07 08:02 | 44.37872 | 6.49542 | 37979 ft | 476 kts | 22° |
| 2026-05-07 08:03 | 44.43817 | 6.53674 | 37987 ft | 477 kts | 22° |
| 2026-05-07 08:03 | 44.49743 | 6.57808 | 37981 ft | 475 kts | 22° |
| 2026-05-07 08:04 | 44.55657 | 6.61932 | 37983 ft | 476 kts | 22° |
| 2026-05-07 08:04 | 44.61576 | 6.66074 | 37986 ft | 475 kts | 22° |
| 2026-05-07 08:05 | 44.67485 | 6.70222 | 37986 ft | 474 kts | 22° |
| 2026-05-07 08:05 | 44.73392 | 6.74374 | 37992 ft | 475 kts | 22° |
| 2026-05-07 08:06 | 44.79505 | 6.77647 | 37996 ft | 466 kts | 8° |
| 2026-05-07 08:06 | 44.85867 | 6.78628 | 37995 ft | 456 kts | 354° |
| 2026-05-07 08:07 | 44.92171 | 6.78219 | 37989 ft | 453 kts | 352° |
| 2026-05-07 08:07 | 44.98467 | 6.77820 | 38008 ft | 454 kts | 352° |
| 2026-05-07 08:08 | 45.04798 | 6.77406 | 38007 ft | 455 kts | 352° |
| 2026-05-07 08:08 | 45.11105 | 6.76992 | 38021 ft | 454 kts | 352° |
| 2026-05-07 08:09 | 45.16358 | 6.76642 | 38023 ft | 455 kts | 352° |
| 2026-05-07 08:09 | 45.22688 | 6.76221 | 38008 ft | 454 kts | 352° |
| 2026-05-07 08:10 | 45.28974 | 6.75804 | 38005 ft | 451 kts | 353° |
| 2026-05-07 08:10 | 45.35280 | 6.75382 | 38014 ft | 456 kts | 353° |
| 2026-05-07 08:11 | 45.41626 | 6.75151 | 38020 ft | 459 kts | 360° |
| 2026-05-07 08:11 | 45.47926 | 6.77065 | 38016 ft | 469 kts | 17° |
| 2026-05-07 08:12 | 45.53760 | 6.81356 | 38022 ft | 475 kts | 27° |
| 2026-05-07 08:12 | 45.59474 | 6.86088 | 38017 ft | 475 kts | 27° |
| 2026-05-07 08:13 | 45.65206 | 6.90844 | 38028 ft | 476 kts | 27° |
| 2026-05-07 08:13 | 45.70923 | 6.95610 | 38018 ft | 474 kts | 27° |
| 2026-05-07 08:14 | 45.76633 | 7.00382 | 38018 ft | 475 kts | 27° |
| 2026-05-07 08:14 | 45.82331 | 7.05157 | 38021 ft | 475 kts | 27° |
| 2026-05-07 08:15 | 45.87988 | 7.09916 | 38019 ft | 474 kts | 27° |
| 2026-05-07 08:15 | 45.93716 | 7.14741 | 38018 ft | 474 kts | 28° |
| 2026-05-07 08:16 | 45.99363 | 7.19514 | 38034 ft | 474 kts | 28° |
| 2026-05-07 08:16 | 46.05050 | 7.24332 | 38031 ft | 474 kts | 28° |
| 2026-05-07 08:17 | 46.10731 | 7.29158 | 38054 ft | 474 kts | 28° |
| 2026-05-07 08:17 | 46.16405 | 7.33988 | 38054 ft | 474 kts | 28° |
| 2026-05-07 08:18 | 46.22088 | 7.38839 | 38054 ft | 474 kts | 28° |
| 2026-05-07 08:18 | 46.27760 | 7.43692 | 38057 ft | 474 kts | 28° |
| 2026-05-07 08:19 | 46.33443 | 7.48567 | 38050 ft | 474 kts | 28° |
| 2026-05-07 08:19 | 46.39110 | 7.53439 | 38031 ft | 473 kts | 28° |
| 2026-05-07 08:20 | 46.44763 | 7.58310 | 38020 ft | 473 kts | 28° |
| 2026-05-07 08:20 | 46.50419 | 7.63197 | 38016 ft | 473 kts | 29° |
| 2026-05-07 08:21 | 46.56060 | 7.68083 | 38014 ft | 472 kts | 29° |
| 2026-05-07 08:21 | 46.61721 | 7.72917 | 38012 ft | 472 kts | 26° |
| 2026-05-07 08:22 | 46.67548 | 7.77310 | 38016 ft | 471 kts | 25° |
| 2026-05-07 08:22 | 46.73381 | 7.81700 | 38016 ft | 471 kts | 26° |
| 2026-05-07 08:23 | 46.79182 | 7.86146 | 38015 ft | 472 kts | 26° |
| 2026-05-07 08:23 | 46.84983 | 7.90623 | 38023 ft | 472 kts | 26° |
| 2026-05-07 08:24 | 46.90803 | 7.95126 | 38026 ft | 473 kts | 26° |
| 2026-05-07 08:24 | 46.96614 | 7.99633 | 38047 ft | 473 kts | 26° |
| 2026-05-07 08:25 | 47.02433 | 8.04157 | 38048 ft | 473 kts | 26° |
| 2026-05-07 08:25 | 47.08240 | 8.08683 | 38040 ft | 472 kts | 26° |
| 2026-05-07 08:26 | 47.16923 | 8.15471 | 38048 ft | 472 kts | 26° |
| 2026-05-07 08:26 | 47.22703 | 8.20004 | 38045 ft | 471 kts | 26° |
| 2026-05-07 08:27 | 47.28361 | 8.24452 | 38039 ft | 472 kts | 26° |
| 2026-05-07 08:27 | 47.34139 | 8.29005 | 38035 ft | 470 kts | 26° |
| 2026-05-07 08:28 | 47.39904 | 8.33560 | 38031 ft | 469 kts | 27° |
| 2026-05-07 08:28 | 47.45608 | 8.38078 | 38024 ft | 468 kts | 27° |
| 2026-05-07 08:29 | 47.51356 | 8.42641 | 38047 ft | 471 kts | 27° |
| 2026-05-07 08:29 | 47.57130 | 8.47237 | 38046 ft | 471 kts | 27° |
| 2026-05-07 08:30 | 47.62903 | 8.51845 | 38043 ft | 471 kts | 27° |
| 2026-05-07 08:30 | 47.68666 | 8.56457 | 38038 ft | 471 kts | 27° |
| 2026-05-07 08:31 | 47.74436 | 8.61085 | 38029 ft | 471 kts | 27° |
| 2026-05-07 08:31 | 47.80194 | 8.65715 | 38022 ft | 471 kts | 27° |
| 2026-05-07 08:32 | 47.85950 | 8.70355 | 38027 ft | 471 kts | 27° |
| 2026-05-07 08:32 | 47.91714 | 8.75014 | 38018 ft | 471 kts | 27° |
| 2026-05-07 08:33 | 47.97466 | 8.79674 | 38018 ft | 471 kts | 27° |
| 2026-05-07 08:33 | 48.03222 | 8.84351 | 38014 ft | 471 kts | 27° |
| 2026-05-07 08:34 | 48.08985 | 8.89044 | 38016 ft | 471 kts | 27° |
| 2026-05-07 08:34 | 48.14867 | 8.93338 | 38018 ft | 472 kts | 19° |
| 2026-05-07 08:35 | 48.21169 | 8.95866 | 38006 ft | 466 kts | 7° |
| 2026-05-07 08:35 | 48.24381 | 8.96458 | 37858 ft | 465 kts | 4° |
| 2026-05-07 08:35 | 48.27565 | 8.96941 | 37379 ft | 465 kts | 4° |
| 2026-05-07 08:36 | 48.30821 | 8.97448 | 36677 ft | 466 kts | 4° |
| 2026-05-07 08:36 | 48.34016 | 8.97945 | 35877 ft | 469 kts | 4° |
| 2026-05-07 08:36 | 48.37270 | 8.98446 | 35026 ft | 472 kts | 4° |
| 2026-05-07 08:36 | 48.40582 | 8.98954 | 34237 ft | 472 kts | 4° |
| 2026-05-07 08:37 | 48.43803 | 8.99452 | 33448 ft | 470 kts | 4° |
| 2026-05-07 08:37 | 48.47042 | 8.99941 | 32614 ft | 466 kts | 4° |
| 2026-05-07 08:37 | 48.50251 | 9.00426 | 31834 ft | 461 kts | 5° |
| 2026-05-07 08:37 | 48.53429 | 9.00913 | 31018 ft | 458 kts | 5° |
| 2026-05-07 08:38 | 48.56576 | 9.01395 | 30318 ft | 452 kts | 5° |
| 2026-05-07 08:38 | 48.59696 | 9.01871 | 29624 ft | 445 kts | 5° |
| 2026-05-07 08:38 | 48.62742 | 9.02350 | 29075 ft | 435 kts | 6° |
| 2026-05-07 08:38 | 48.65695 | 9.03042 | 28512 ft | 427 kts | 8° |
| 2026-05-07 08:39 | 48.68600 | 9.03737 | 27970 ft | 419 kts | 8° |
| 2026-05-07 08:39 | 48.71465 | 9.04415 | 27421 ft | 412 kts | 8° |
| 2026-05-07 08:39 | 48.74273 | 9.05078 | 26886 ft | 405 kts | 8° |
| 2026-05-07 08:39 | 48.77037 | 9.05730 | 26355 ft | 399 kts | 8° |
| 2026-05-07 08:40 | 48.79762 | 9.06379 | 25836 ft | 394 kts | 8° |
| 2026-05-07 08:40 | 48.82454 | 9.07028 | 25315 ft | 389 kts | 8° |
| 2026-05-07 08:40 | 48.85110 | 9.07666 | 24800 ft | 384 kts | 7° |
| 2026-05-07 08:40 | 48.87744 | 9.08307 | 24294 ft | 380 kts | 7° |
| 2026-05-07 08:41 | 48.90359 | 9.08737 | 23779 ft | 376 kts | 4° |
| 2026-05-07 08:41 | 48.92947 | 9.09095 | 23251 ft | 372 kts | 4° |
| 2026-05-07 08:41 | 48.95508 | 9.09458 | 22731 ft | 367 kts | 4° |
| 2026-05-07 08:41 | 48.98036 | 9.09819 | 22234 ft | 362 kts | 4° |
| 2026-05-07 08:42 | 49.00538 | 9.10176 | 21743 ft | 358 kts | 4° |
| 2026-05-07 08:42 | 49.03090 | 9.10538 | 21242 ft | 383 kts | 4° |
| 2026-05-07 08:42 | 49.05797 | 9.10920 | 20696 ft | 397 kts | 4° |
| 2026-05-07 08:42 | 49.08564 | 9.11314 | 20145 ft | 399 kts | 4° |
| 2026-05-07 08:43 | 49.11319 | 9.11708 | 19600 ft | 396 kts | 4° |
| 2026-05-07 08:43 | 49.14054 | 9.12101 | 19050 ft | 391 kts | 4° |
| 2026-05-07 08:43 | 49.16738 | 9.12487 | 18516 ft | 385 kts | 4° |
| 2026-05-07 08:43 | 49.19385 | 9.12867 | 17947 ft | 379 kts | 4° |
| 2026-05-07 08:44 | 49.21984 | 9.13241 | 17414 ft | 372 kts | 4° |
| 2026-05-07 08:44 | 49.24537 | 9.13607 | 16898 ft | 365 kts | 4° |
| 2026-05-07 08:44 | 49.27049 | 9.13969 | 16388 ft | 359 kts | 4° |
| 2026-05-07 08:44 | 49.29462 | 9.14528 | 15904 ft | 355 kts | 11° |
| 2026-05-07 08:45 | 49.31863 | 9.15389 | 15387 ft | 351 kts | 12° |
| 2026-05-07 08:45 | 49.34223 | 9.16231 | 14904 ft | 347 kts | 12° |
| 2026-05-07 08:45 | 49.36560 | 9.17060 | 14416 ft | 343 kts | 11° |
| 2026-05-07 08:45 | 49.38863 | 9.17875 | 13943 ft | 339 kts | 11° |
| 2026-05-07 08:46 | 49.41156 | 9.18688 | 13433 ft | 336 kts | 11° |
| 2026-05-07 08:46 | 49.43421 | 9.19495 | 12954 ft | 331 kts | 11° |
| 2026-05-07 08:46 | 49.45653 | 9.20285 | 12501 ft | 327 kts | 11° |
| 2026-05-07 08:46 | 49.47853 | 9.21070 | 12045 ft | 324 kts | 11° |
| 2026-05-07 08:47 | 49.50034 | 9.21848 | 11581 ft | 320 kts | 11° |
| 2026-05-07 08:47 | 49.52193 | 9.22618 | 11141 ft | 317 kts | 11° |
| 2026-05-07 08:47 | 49.54330 | 9.23379 | 10787 ft | 312 kts | 10° |
| 2026-05-07 08:47 | 49.56525 | 9.24157 | 10720 ft | 334 kts | 10° |
| 2026-05-07 08:48 | 49.58792 | 9.24962 | 10642 ft | 334 kts | 10° |
| 2026-05-07 08:48 | 49.61055 | 9.25767 | 10516 ft | 334 kts | 10° |
| 2026-05-07 08:48 | 49.63313 | 9.26581 | 10386 ft | 332 kts | 11° |
| 2026-05-07 08:48 | 49.65537 | 9.27371 | 10318 ft | 320 kts | 7° |
| 2026-05-07 08:49 | 49.67679 | 9.27352 | 10203 ft | 300 kts | 346° |
| 2026-05-07 08:49 | 49.69659 | 9.26632 | 10090 ft | 286 kts | 343° |
| 2026-05-07 08:49 | 49.71557 | 9.25931 | 9894 ft | 277 kts | 343° |
| 2026-05-07 08:49 | 49.73457 | 9.25229 | 9208 ft | 285 kts | 343° |
| 2026-05-07 08:50 | 49.75418 | 9.24488 | 8495 ft | 293 kts | 343° |
| 2026-05-07 08:50 | 49.77397 | 9.23720 | 8005 ft | 293 kts | 343° |
| 2026-05-07 08:50 | 49.79331 | 9.22804 | 7561 ft | 289 kts | 336° |
| 2026-05-07 08:50 | 49.81135 | 9.21561 | 7159 ft | 285 kts | 334° |
| 2026-05-07 08:51 | 49.82951 | 9.20254 | 7020 ft | 287 kts | 334° |
| 2026-05-07 08:51 | 49.84765 | 9.18939 | 6989 ft | 286 kts | 334° |
| 2026-05-07 08:51 | 49.86569 | 9.17627 | 6988 ft | 287 kts | 334° |
| 2026-05-07 08:51 | 49.88338 | 9.16337 | 6986 ft | 273 kts | 334° |
| 2026-05-07 08:52 | 49.90010 | 9.15117 | 6964 ft | 262 kts | 334° |
| 2026-05-07 08:52 | 49.91661 | 9.13908 | 6764 ft | 262 kts | 334° |
| 2026-05-07 08:52 | 49.93300 | 9.12701 | 6420 ft | 262 kts | 334° |
| 2026-05-07 08:52 | 49.94938 | 9.11485 | 6029 ft | 261 kts | 333° |
| 2026-05-07 08:53 | 49.96569 | 9.10272 | 5622 ft | 259 kts | 333° |
| 2026-05-07 08:53 | 49.98197 | 9.09060 | 5212 ft | 259 kts | 334° |
| 2026-05-07 08:53 | 49.99813 | 9.07856 | 4848 ft | 257 kts | 333° |
| 2026-05-07 08:53 | 50.01403 | 9.06624 | 4471 ft | 254 kts | 333° |
| 2026-05-07 08:54 | 50.02967 | 9.05454 | 4186 ft | 250 kts | 334° |
| 2026-05-07 08:54 | 50.04555 | 9.04269 | 4020 ft | 255 kts | 334° |
| 2026-05-07 08:54 | 50.06145 | 9.03074 | 4001 ft | 253 kts | 334° |
| 2026-05-07 08:54 | 50.07724 | 9.01794 | 4002 ft | 253 kts | 324° |
| 2026-05-07 08:55 | 50.08864 | 8.99729 | 3997 ft | 252 kts | 296° |
| 2026-05-07 08:55 | 50.09333 | 8.97165 | 4004 ft | 241 kts | 283° |
| 2026-05-07 08:55 | 50.09673 | 8.94694 | 3996 ft | 234 kts | 283° |
| 2026-05-07 08:55 | 50.10007 | 8.92249 | 4011 ft | 221 kts | 284° |
| 2026-05-07 08:56 | 50.10306 | 8.90003 | 4008 ft | 208 kts | 283° |
| 2026-05-07 08:56 | 50.10490 | 8.87865 | 4011 ft | 193 kts | 272° |
| 2026-05-07 08:56 | 50.10339 | 8.85733 | 4008 ft | 201 kts | 259° |
| 2026-05-07 08:56 | 50.09956 | 8.83667 | 3846 ft | 197 kts | 253° |
| 2026-05-07 08:57 | 50.09484 | 8.81658 | 3569 ft | 198 kts | 252° |
| 2026-05-07 08:57 | 50.09007 | 8.79670 | 3330 ft | 192 kts | 252° |
| 2026-05-07 08:57 | 50.08554 | 8.77755 | 3043 ft | 185 kts | 252° |
| 2026-05-07 08:57 | 50.08114 | 8.75907 | 2787 ft | 178 kts | 253° |
| 2026-05-07 08:58 | 50.07696 | 8.74133 | 2547 ft | 171 kts | 252° |
| 2026-05-07 08:58 | 50.07413 | 8.72959 | 2391 ft | 173 kts | 252° |
| 2026-05-07 08:58 | 50.07006 | 8.71232 | 2153 ft | 166 kts | 253° |
| 2026-05-07 08:58 | 50.06621 | 8.69631 | 1937 ft | 149 kts | 253° |
| 2026-05-07 08:59 | 50.06280 | 8.68206 | 1744 ft | 133 kts | 253° |
| 2026-05-07 08:59 | 50.05965 | 8.66902 | 1537 ft | 128 kts | 252° |
| 2026-05-07 08:59 | 50.05656 | 8.65615 | 1327 ft | 125 kts | 253° |
| 2026-05-07 08:59 | 50.05366 | 8.64358 | 1111 ft | 123 kts | 252° |
| 2026-05-07 09:00 | 50.05059 | 8.63101 | 952 ft | 124 kts | 252° |
| 2026-05-07 09:00 | 50.04766 | 8.61853 | 782 ft | 123 kts | 252° |
| 2026-05-07 09:00 | 50.04466 | 8.60602 | 644 ft | 124 kts | 252° |
| 2026-05-07 09:00 | 50.04171 | 8.59360 | 502 ft | 122 kts | 252° |
| 2026-05-07 09:01 | 50.03877 | 8.58119 | 373 ft | 121 kts | 252° |
| 2026-05-07 09:01 | 50.03633 | 8.57083 | 356 ft | 75 kts | 250° |
| 2026-05-07 09:01 | 50.03483 | 8.56458 | 353 ft | 45 kts | 249° |
| 2026-05-07 09:01 | 50.03434 | 8.56113 | 351 ft | 32 kts | 271° |
| 2026-05-07 09:02 | 50.03461 | 8.55845 | 347 ft | 22 kts | 281° |
| 2026-05-07 09:02 | 50.03486 | 8.55635 | 345 ft | 20 kts | 280° |
| 2026-05-07 09:02 | 50.03478 | 8.55415 | 349 ft | 22 kts | 249° |
| 2026-05-07 09:02 | 50.03423 | 8.55181 | 345 ft | 24 kts | 251° |
| 2026-05-07 09:03 | 50.03362 | 8.54921 | 346 ft | 27 kts | 250° |
| 2026-05-07 09:03 | 50.03300 | 8.54673 | 334 ft | 16 kts | 248° |
| 2026-05-07 09:03 | 50.03282 | 8.54508 | 335 ft | 14 kts | 299° |
| 2026-05-07 09:03 | 50.03358 | 8.54449 | 337 ft | 7 kts | 343° |
| 2026-05-07 09:04 | 50.03374 | 8.54442 | 338 ft | 0 kts | 342° |
| 2026-05-07 09:05 | 50.03389 | 8.54434 | 338 ft | 8 kts | 342° |
| 2026-05-07 09:05 | 50.03470 | 8.54393 | 348 ft | 17 kts | 341° |
| 2026-05-07 09:05 | 50.03591 | 8.54319 | 341 ft | 13 kts | 337° |
| 2026-05-07 09:05 | 50.03662 | 8.54340 | 345 ft | 11 kts | 54° |
| 2026-05-07 09:06 | 50.03697 | 8.54469 | 346 ft | 15 kts | 70° |
| 2026-05-07 09:06 | 50.03733 | 8.54629 | 350 ft | 17 kts | 70° |
| 2026-05-07 09:06 | 50.03777 | 8.54812 | 346 ft | 19 kts | 69° |
| 2026-05-07 09:06 | 50.03828 | 8.55022 | 357 ft | 22 kts | 70° |
| 2026-05-07 09:07 | 50.03883 | 8.55260 | 355 ft | 25 kts | 68° |
| 2026-05-07 09:07 | 50.03947 | 8.55526 | 353 ft | 28 kts | 69° |
| 2026-05-07 09:07 | 50.04017 | 8.55817 | 353 ft | 30 kts | 69° |
| 2026-05-07 09:07 | 50.04073 | 8.56047 | 358 ft | 21 kts | 69° |
| 2026-05-07 09:08 | 50.04120 | 8.56239 | 356 ft | 14 kts | 66° |
| 2026-05-07 09:08 | 50.04198 | 8.56263 | 360 ft | 13 kts | 337° |
| 2026-05-07 09:08 | 50.04284 | 8.56194 | 356 ft | 13 kts | 294° |
| 2026-05-07 09:08 | 50.04326 | 8.56060 | 360 ft | 15 kts | 329° |
| 2026-05-07 09:09 | 50.04416 | 8.56035 | 359 ft | 13 kts | 22° |
| 2026-05-07 09:09 | 50.04461 | 8.56148 | 361 ft | 13 kts | 69° |
| 2026-05-07 09:09 | 50.04494 | 8.56215 | 360 ft | 8 kts | 10° |
| 2026-05-07 09:09 | 50.04514 | 8.56211 | 361 ft | 1 kts | 344° |
| 2026-05-07 09:10 | 50.04524 | 8.56209 | 360 ft | 1 kts | 358° |
| 2026-05-07 09:10 | 50.04531 | 8.56215 | 362 ft | 2 kts | 24° |
| 2026-05-07 09:10 | 50.04538 | 8.56222 | 362 ft | 1 kts | 33° |
| 2026-05-07 09:10 | 50.04540 | 8.56224 | 362 ft | 0 kts | 34° |